createdAt,value
2022-09-10T00:01:27.150Z,13.75
2022-09-10T00:03:55.960Z,13.73
2022-09-10T00:06:25.983Z,13.78
2022-09-10T00:08:56.166Z,13.77
2022-09-10T00:11:25.058Z,13.84
2022-09-10T00:13:53.665Z,13.82
2022-09-10T00:16:21.999Z,13.74
2022-09-10T00:18:51.616Z,13.79
2022-09-10T00:21:21.549Z,13.79
2022-09-10T00:23:49.884Z,13.75
2022-09-10T00:26:21.613Z,13.72
2022-09-10T00:28:50.705Z,13.81
2022-09-10T00:31:20.286Z,13.91
2022-09-10T00:33:49.408Z,13.92
2022-09-10T00:36:21.559Z,13.98
2022-09-10T00:38:50.363Z,14.05
2022-09-10T00:41:20.318Z,14.10
2022-09-10T00:43:53.822Z,14.13
2022-09-10T00:46:28.309Z,14.12
2022-09-10T00:48:59.003Z,14.16
2022-09-10T00:51:31.030Z,14.25
2022-09-10T00:53:59.911Z,14.20
2022-09-10T00:56:29.082Z,14.18
2022-09-10T00:58:57.688Z,14.15
2022-09-10T01:01:25.917Z,14.12
2022-09-10T01:03:55.807Z,14.08
2022-09-10T01:06:24.171Z,14.07
2022-09-10T01:08:53.644Z,14.05
2022-09-10T01:11:42.510Z,14.03
2022-09-10T01:14:33.020Z,14.05
2022-09-10T01:17:11.774Z,14.03
2022-09-10T01:20:00.283Z,14.00
2022-09-10T01:22:38.428Z,13.99
2022-09-10T01:25:20.556Z,14.12
2022-09-10T01:27:53.567Z,14.01
2022-09-10T01:30:24.340Z,14.03
2022-09-10T01:33:05.552Z,14.01
2022-09-10T01:35:43.073Z,14.04
2022-09-10T01:38:15.307Z,14.06
2022-09-10T01:40:44.735Z,14.04
2022-09-10T01:43:18.246Z,14.02
2022-09-10T01:46:05.502Z,14.08
2022-09-10T01:48:56.022Z,14.09
2022-09-10T01:51:34.683Z,14.03
2022-09-10T01:54:24.723Z,14.06
2022-09-10T01:57:04.675Z,14.08
2022-09-10T01:59:39.630Z,14.07
2022-09-10T02:02:15.624Z,14.06
2022-09-10T02:04:46.005Z,14.04
2022-09-10T02:07:16.772Z,14.08
2022-09-10T02:09:45.302Z,14.09
2022-09-10T02:12:19.727Z,14.07
2022-09-10T02:14:56.094Z,13.97
2022-09-10T02:17:38.346Z,13.94
2022-09-10T02:20:10.909Z,13.91
2022-09-10T02:22:41.456Z,13.95
2022-09-10T02:25:10.246Z,14.00
2022-09-10T02:27:40.418Z,13.96
2022-09-10T02:30:11.123Z,13.97
2022-09-10T02:32:39.027Z,14.00
2022-09-10T02:35:08.764Z,13.98
2022-09-10T02:37:37.132Z,13.96
2022-09-10T02:40:06.177Z,13.98
2022-09-10T02:42:34.209Z,14.01
2022-09-10T02:45:03.147Z,13.98
2022-09-10T02:47:33.247Z,14.02
2022-09-10T02:50:02.089Z,13.98
2022-09-10T02:52:30.102Z,14.00
2022-09-10T02:54:58.107Z,13.96
2022-09-10T02:57:26.035Z,13.94
2022-09-10T02:59:56.418Z,13.93
2022-09-10T03:02:25.592Z,13.93
2022-09-10T03:04:56.686Z,13.95
2022-09-10T03:07:26.028Z,13.98
2022-09-10T03:09:54.217Z,14.03
2022-09-10T03:12:22.266Z,14.03
2022-09-10T03:14:50.270Z,14.05
2022-09-10T03:17:18.205Z,14.07
2022-09-10T03:19:46.047Z,14.16
2022-09-10T03:22:15.309Z,14.19
2022-09-10T03:24:43.524Z,14.15
2022-09-10T03:27:11.442Z,14.14
2022-09-10T03:29:39.383Z,14.14
2022-09-10T03:32:08.323Z,14.17
2022-09-10T03:34:36.246Z,14.18
2022-09-10T03:37:04.309Z,14.20
2022-09-10T03:39:34.091Z,14.18
2022-09-10T03:42:05.149Z,14.18
2022-09-10T03:44:34.866Z,14.23
2022-09-10T03:47:03.658Z,14.22
2022-09-10T03:49:31.526Z,14.22
2022-09-10T03:51:59.564Z,14.22
2022-09-10T03:54:28.066Z,14.24
2022-09-10T03:56:57.357Z,14.18
2022-09-10T03:59:25.317Z,14.15
2022-09-10T04:01:54.833Z,14.14
2022-09-10T04:04:22.863Z,14.23
2022-09-10T04:06:53.283Z,14.23
2022-09-10T04:09:21.321Z,14.18
2022-09-10T04:11:49.195Z,14.18
2022-09-10T04:14:19.453Z,14.15
2022-09-10T04:16:48.786Z,14.10
2022-09-10T04:19:17.317Z,14.11
2022-09-10T04:21:45.297Z,14.14
2022-09-10T04:24:13.945Z,14.16
2022-09-10T04:26:42.907Z,14.16
2022-09-10T04:29:13.471Z,14.13
2022-09-10T04:31:43.095Z,14.12
2022-09-10T04:34:14.140Z,14.12
2022-09-10T04:36:42.327Z,14.06
2022-09-10T04:39:10.342Z,14.07
2022-09-10T04:41:39.027Z,14.11
2022-09-10T04:44:08.098Z,14.04
2022-09-10T04:46:36.418Z,14.07
2022-09-10T04:49:09.708Z,14.04
2022-09-10T04:51:37.982Z,14.12
2022-09-10T04:54:05.910Z,14.08
2022-09-10T04:56:37.313Z,14.08
2022-09-10T04:59:06.223Z,14.06
2022-09-10T05:01:37.485Z,14.06
2022-09-10T05:04:05.891Z,14.08
2022-09-10T05:06:38.511Z,14.06
2022-09-10T05:09:09.346Z,14.04
2022-09-10T05:11:37.267Z,14.05
2022-09-10T05:14:05.688Z,14.08
2022-09-10T05:16:33.729Z,14.11
2022-09-10T05:19:01.855Z,14.06
2022-09-10T05:21:33.818Z,14.01
2022-09-10T05:24:03.368Z,14.05
2022-09-10T05:26:31.514Z,14.03
2022-09-10T05:29:00.349Z,14.10
2022-09-10T05:31:28.769Z,14.08
2022-09-10T05:33:59.266Z,14.11
2022-09-10T05:36:27.580Z,14.11
2022-09-10T05:38:55.981Z,14.10
2022-09-10T05:41:25.303Z,14.14
2022-09-10T05:43:55.765Z,14.11
2022-09-10T05:46:24.298Z,14.09
2022-09-10T05:48:55.162Z,14.15
2022-09-10T05:51:27.697Z,14.13
2022-09-10T05:53:57.280Z,14.17
2022-09-10T05:56:27.045Z,14.17
2022-09-10T05:58:55.142Z,14.16
2022-09-10T06:01:23.135Z,14.25
2022-09-10T06:03:51.949Z,14.23
2022-09-10T06:06:20.208Z,14.17
2022-09-10T06:08:57.897Z,14.22
2022-09-10T06:11:38.770Z,14.14
2022-09-10T06:14:07.099Z,14.19
2022-09-10T06:16:35.122Z,14.17
2022-09-10T06:19:04.002Z,14.17
2022-09-10T06:21:33.379Z,14.16
2022-09-10T06:24:01.385Z,14.15
2022-09-10T06:26:33.303Z,14.14
2022-09-10T06:29:07.721Z,14.12
2022-09-10T06:31:36.708Z,14.14
2022-09-10T06:34:05.037Z,14.12
2022-09-10T06:36:34.748Z,14.14
2022-09-10T06:39:03.502Z,14.18
2022-09-10T06:41:38.953Z,14.15
2022-09-10T06:44:14.143Z,14.14
2022-09-10T06:49:36.321Z,14.12
2022-09-10T06:52:05.933Z,14.13
2022-09-10T06:54:35.040Z,14.18
2022-09-10T06:57:18.679Z,14.21
2022-09-10T06:59:47.996Z,14.28
2022-09-10T07:02:16.012Z,14.41
2022-09-10T07:04:44.597Z,14.35
2022-09-10T07:07:12.644Z,14.45
2022-09-10T07:09:41.166Z,14.48
2022-09-10T07:12:09.508Z,14.50
2022-09-10T07:14:40.921Z,14.63
2022-09-10T07:17:12.601Z,14.77
2022-09-10T07:19:40.709Z,14.83
2022-09-10T07:22:26.565Z,14.93
2022-09-10T07:24:55.210Z,14.99
2022-09-10T07:27:41.747Z,14.91
2022-09-10T07:30:10.792Z,14.96
2022-09-10T07:32:41.020Z,14.93
2022-09-10T07:35:17.714Z,14.93
2022-09-10T07:37:47.445Z,14.97
2022-09-10T07:40:15.823Z,15.02
2022-09-10T07:42:45.321Z,14.99
2022-09-10T07:45:16.704Z,15.00
2022-09-10T07:47:48.375Z,15.22
2022-09-10T07:50:17.059Z,15.26
2022-09-10T07:52:46.117Z,15.34
2022-09-10T07:55:14.401Z,15.45
2022-09-10T07:57:44.318Z,15.46
2022-09-10T08:00:15.380Z,15.43
2022-09-10T08:02:44.451Z,15.57
2022-09-10T08:05:19.596Z,15.78
2022-09-10T08:07:47.640Z,15.87
2022-09-10T08:10:15.595Z,15.82
2022-09-10T08:12:44.328Z,16.02
2022-09-10T08:15:14.504Z,16.34
2022-09-10T08:17:43.488Z,16.25
2022-09-10T08:20:11.997Z,16.23
2022-09-10T08:22:45.414Z,16.38
2022-09-10T08:25:14.694Z,16.31
2022-09-10T08:27:43.801Z,16.62
2022-09-10T08:30:14.632Z,16.78
2022-09-10T08:32:43.133Z,16.84
2022-09-10T08:35:14.990Z,16.88
2022-09-10T08:37:43.621Z,16.86
2022-09-10T08:40:14.509Z,16.99
2022-09-10T08:42:48.097Z,17.01
2022-09-10T08:45:21.964Z,17.17
2022-09-10T08:47:58.509Z,17.30
2022-09-10T08:50:40.151Z,17.14
2022-09-10T08:53:25.762Z,17.16
2022-09-10T08:55:59.774Z,17.12
2022-09-10T08:58:43.359Z,17.00
2022-09-10T09:01:16.809Z,17.30
2022-09-10T09:03:47.164Z,17.38
2022-09-10T09:06:27.651Z,17.49
2022-09-10T09:08:56.128Z,17.27
2022-09-10T09:11:41.930Z,17.11
2022-09-10T09:14:21.384Z,16.95
2022-09-10T09:17:06.134Z,17.00
2022-09-10T09:19:41.762Z,17.04
2022-09-10T09:22:18.090Z,17.02
2022-09-10T09:24:56.465Z,17.05
2022-09-10T09:27:29.548Z,16.78
2022-09-10T09:30:02.382Z,16.92
2022-09-10T09:32:36.652Z,16.96
2022-09-10T09:35:17.749Z,17.06
2022-09-10T09:37:47.647Z,17.30
2022-09-10T09:40:26.380Z,17.27
2022-09-10T09:42:59.927Z,17.35
2022-09-10T09:45:37.195Z,17.58
2022-09-10T09:48:06.488Z,17.48
2022-09-10T09:50:39.183Z,17.70
2022-09-10T09:53:07.452Z,17.75
2022-09-10T09:55:39.788Z,17.89
2022-09-10T09:58:31.126Z,18.01
2022-09-10T10:01:14.537Z,18.42
2022-09-10T10:03:58.910Z,18.61
2022-09-10T10:06:29.654Z,18.12
2022-09-10T10:09:07.136Z,18.16
2022-09-10T10:11:46.224Z,17.61
2022-09-10T10:14:38.652Z,17.45
2022-09-10T10:17:30.246Z,17.14
2022-09-10T10:20:01.119Z,17.25
2022-09-10T10:22:34.027Z,17.26
2022-09-10T10:25:04.420Z,17.42
2022-09-10T10:27:35.499Z,16.98
2022-09-10T10:30:13.886Z,16.97
2022-09-10T10:32:46.607Z,16.87
2022-09-10T10:35:37.334Z,16.92
2022-09-10T10:38:19.996Z,16.97
2022-09-10T10:40:57.035Z,16.76
2022-09-10T10:43:39.111Z,16.58
2022-09-10T10:46:14.988Z,16.69
2022-09-10T10:48:57.930Z,16.54
2022-09-10T10:51:36.781Z,16.47
2022-09-10T10:54:25.561Z,16.50
2022-09-10T10:57:06.771Z,16.54
2022-09-10T10:59:48.411Z,16.62
2022-09-10T11:02:27.476Z,16.65
2022-09-10T11:04:58.175Z,16.60
2022-09-10T11:07:31.191Z,16.45
2022-09-10T11:10:02.305Z,16.61
2022-09-10T11:12:34.794Z,16.58
2022-09-10T11:15:20.546Z,16.61
2022-09-10T11:17:54.339Z,16.52
2022-09-10T11:23:29.572Z,16.57
2022-09-10T11:26:03.531Z,16.42
2022-09-10T11:28:37.104Z,16.62
2022-09-10T11:31:13.827Z,16.58
2022-09-10T11:33:54.210Z,16.48
2022-09-10T11:36:28.006Z,16.58
2022-09-10T11:39:09.268Z,16.77
2022-09-10T11:41:43.048Z,16.82
2022-09-10T11:44:36.240Z,16.89
2022-09-10T11:47:13.160Z,17.03
2022-09-10T11:49:51.826Z,17.16
2022-09-10T11:52:21.127Z,17.48
2022-09-10T11:54:49.635Z,17.79
2022-09-10T11:57:28.234Z,17.92
2022-09-10T12:00:08.173Z,17.79
2022-09-10T12:03:09.878Z,17.67
2022-09-10T12:05:50.993Z,18.19
2022-09-10T12:08:29.460Z,18.37
2022-09-10T12:11:09.796Z,18.51
2022-09-10T12:13:39.517Z,18.53
2022-09-10T12:16:19.638Z,18.15
2022-09-10T12:18:51.269Z,18.19
2022-09-10T12:21:29.888Z,17.99
2022-09-10T12:23:58.218Z,18.11
2022-09-10T12:26:27.047Z,18.34
2022-09-10T12:29:04.096Z,18.22
2022-09-10T12:32:05.136Z,17.99
2022-09-10T12:34:33.138Z,18.19
2022-09-10T12:37:21.895Z,18.34
2022-09-10T12:40:33.202Z,18.40
2022-09-10T12:43:39.884Z,18.33
2022-09-10T12:46:19.132Z,18.33
2022-09-10T12:48:49.450Z,19.25
2022-09-10T12:51:31.890Z,19.90
2022-09-10T12:54:29.528Z,20.46
2022-09-10T12:57:18.773Z,21.00
2022-09-10T13:00:11.268Z,21.43
2022-09-10T13:02:45.744Z,21.43
2022-09-10T13:05:31.486Z,20.94
2022-09-10T13:08:14.814Z,20.81
2022-09-10T13:10:46.915Z,21.26
2022-09-10T13:13:37.274Z,21.62
2022-09-10T13:16:07.184Z,21.26
2022-09-10T13:18:36.939Z,20.90
2022-09-10T13:21:38.439Z,20.34
2022-09-10T13:24:38.638Z,20.52
2022-09-10T13:27:21.681Z,20.16
2022-09-10T13:29:54.525Z,20.84
2022-09-10T13:32:30.420Z,22.16
2022-09-10T13:35:27.282Z,22.03
2022-09-10T13:38:20.983Z,22.43
2022-09-10T13:41:16.204Z,23.02
2022-09-10T13:44:13.697Z,22.62
2022-09-10T13:46:43.925Z,22.25
2022-09-10T13:49:18.470Z,22.35
2022-09-10T13:51:52.101Z,22.61
2022-09-10T13:54:32.965Z,22.73
2022-09-10T13:57:09.248Z,23.84
2022-09-10T13:59:41.536Z,24.38
2022-09-10T14:02:09.585Z,24.37
2022-09-10T14:04:44.242Z,24.00
2022-09-10T14:07:16.019Z,24.19
2022-09-10T14:09:46.876Z,24.48
2022-09-10T14:12:16.322Z,24.24
2022-09-10T14:14:51.115Z,24.24
2022-09-10T14:17:23.686Z,23.49
2022-09-10T14:19:58.006Z,23.36
2022-09-10T14:22:26.830Z,22.82
2022-09-10T14:24:59.789Z,22.64
2022-09-10T14:27:30.935Z,21.85
2022-09-10T14:30:23.241Z,22.03
2022-09-10T14:32:52.886Z,22.91
2022-09-10T14:35:36.912Z,23.09
2022-09-10T14:38:09.151Z,23.51
2022-09-10T14:40:38.259Z,23.70
2022-09-10T14:43:16.081Z,24.14
2022-09-10T14:45:47.785Z,23.82
2022-09-10T14:48:33.720Z,23.37
2022-09-10T14:51:22.689Z,23.09
2022-09-10T14:53:52.683Z,22.07
2022-09-10T14:56:25.683Z,22.99
2022-09-10T14:59:00.153Z,23.21
2022-09-10T15:01:30.519Z,22.43
2022-09-10T15:03:59.732Z,22.76
2022-09-10T15:06:28.029Z,22.84
2022-09-10T15:08:57.019Z,22.24
2022-09-10T15:11:27.034Z,21.73
2022-09-10T15:13:56.745Z,22.85
2022-09-10T15:16:24.722Z,23.39
2022-09-10T15:18:54.060Z,23.56
2022-09-10T15:21:22.226Z,23.23
2022-09-10T15:23:50.240Z,22.84
2022-09-10T15:26:18.201Z,22.47
2022-09-10T15:28:46.091Z,22.50
2022-09-10T15:31:17.092Z,22.74
2022-09-10T15:33:45.598Z,22.46
2022-09-10T15:36:15.188Z,22.16
2022-09-10T15:38:43.103Z,21.94
2022-09-10T15:41:13.262Z,21.93
2022-09-10T15:43:43.860Z,21.57
2022-09-10T15:46:12.943Z,21.35
2022-09-10T15:48:41.314Z,21.06
2022-09-10T15:51:14.899Z,21.22
2022-09-10T15:53:45.979Z,20.74
2022-09-10T15:56:14.389Z,20.46
2022-09-10T15:58:43.173Z,20.47
2022-09-10T16:01:13.147Z,20.26
2022-09-10T16:03:46.268Z,20.26
2022-09-10T16:06:15.497Z,20.24
2022-09-10T16:08:49.207Z,20.32
2022-09-10T16:11:18.056Z,20.43
2022-09-10T16:13:46.778Z,20.32
2022-09-10T16:16:19.001Z,20.34
2022-09-10T16:18:47.592Z,20.36
2022-09-10T16:21:18.464Z,20.05
2022-09-10T16:23:48.269Z,19.90
2022-09-10T16:26:19.899Z,19.44
2022-09-10T16:28:51.294Z,19.24
2022-09-10T16:31:20.805Z,19.18
2022-09-10T16:33:52.868Z,18.87
2022-09-10T16:36:23.434Z,18.82
2022-09-10T16:38:55.260Z,18.89
2022-09-10T16:41:24.624Z,18.77
2022-09-10T16:43:53.488Z,18.60
2022-09-10T16:46:21.633Z,18.42
2022-09-10T16:48:52.885Z,18.30
2022-09-10T16:51:24.300Z,18.11
2022-09-10T16:54:02.180Z,18.11
2022-09-10T16:56:33.523Z,18.18
2022-09-10T16:59:01.912Z,18.09
2022-09-10T17:01:31.123Z,17.90
2022-09-10T17:03:59.573Z,17.88
2022-09-10T17:06:29.195Z,17.62
2022-09-10T17:08:58.925Z,17.51
2022-09-10T17:11:28.079Z,17.37
2022-09-10T17:13:57.637Z,17.31
2022-09-10T17:16:29.500Z,17.26
2022-09-10T17:18:58.862Z,17.14
2022-09-10T17:21:27.443Z,17.12
2022-09-10T17:23:56.749Z,17.00
2022-09-10T17:26:26.959Z,16.94
2022-09-10T17:28:57.147Z,16.99
2022-09-10T17:31:27.343Z,16.95
2022-09-10T17:33:55.541Z,16.93
2022-09-10T17:36:25.162Z,16.90
2022-09-10T17:38:54.636Z,16.92
2022-09-10T17:41:23.731Z,16.82
2022-09-10T17:43:53.329Z,16.73
2022-09-10T17:46:23.319Z,16.65
2022-09-10T17:48:53.428Z,16.63
2022-09-10T17:51:23.573Z,16.74
2022-09-10T17:53:52.118Z,16.69
2022-09-10T17:56:20.532Z,16.70
2022-09-10T17:58:49.132Z,16.62
2022-09-10T18:01:23.651Z,16.66
2022-09-10T18:03:52.315Z,16.72
2022-09-10T18:06:21.349Z,16.69
2022-09-10T18:08:51.368Z,16.71
2022-09-10T18:11:24.004Z,16.71
2022-09-10T18:13:53.681Z,16.54
2022-09-10T18:16:24.265Z,16.52
2022-09-10T18:18:55.474Z,16.45
2022-09-10T18:21:26.983Z,16.39
2022-09-10T18:23:57.193Z,16.32
2022-09-10T18:26:26.952Z,16.30
2022-09-10T18:28:57.338Z,16.19
2022-09-10T18:31:28.226Z,16.17
2022-09-10T18:33:56.668Z,16.10
2022-09-10T18:36:26.026Z,16.12
2022-09-10T18:38:54.032Z,16.17
2022-09-10T18:41:24.638Z,16.06
2022-09-10T18:43:54.339Z,15.99
2022-09-10T18:46:23.451Z,15.91
2022-09-10T18:48:54.052Z,15.94
2022-09-10T18:51:24.677Z,15.88
2022-09-10T18:53:54.313Z,15.82
2022-09-10T18:56:23.152Z,15.78
2022-09-10T18:58:52.495Z,15.78
2022-09-10T19:01:21.106Z,15.75
2022-09-10T19:03:50.023Z,15.76
2022-09-10T19:06:22.921Z,15.75
2022-09-10T19:08:53.543Z,15.68
2022-09-10T19:11:24.321Z,15.65
2022-09-10T19:13:54.152Z,15.67
2022-09-10T19:16:24.338Z,15.65
2022-09-10T19:18:53.577Z,15.65
2022-09-10T19:21:24.488Z,15.67
2022-09-10T19:23:59.479Z,15.63
2022-09-10T19:26:29.917Z,15.63
2022-09-10T19:28:58.334Z,15.63
2022-09-10T19:31:28.347Z,15.62
2022-09-10T19:33:58.068Z,15.63
2022-09-10T19:36:30.284Z,15.64
2022-09-10T19:38:59.495Z,15.62
2022-09-10T19:41:27.548Z,15.61
2022-09-10T19:43:56.957Z,15.59
2022-09-10T19:46:28.191Z,15.52
2022-09-10T19:48:59.241Z,15.52
2022-09-10T19:51:31.078Z,15.49
2022-09-10T19:54:00.190Z,15.46
2022-09-10T19:56:29.843Z,15.47
2022-09-10T19:58:57.767Z,15.45
2022-09-10T20:01:28.346Z,15.42
2022-09-10T20:03:57.101Z,15.42
2022-09-10T20:06:26.277Z,15.41
2022-09-10T20:08:56.716Z,15.39
2022-09-10T20:11:26.661Z,15.38
2022-09-10T20:13:56.226Z,15.40
2022-09-10T20:16:25.977Z,15.43
2022-09-10T20:18:54.039Z,15.40
2022-09-10T20:21:28.235Z,15.38
2022-09-10T20:23:57.701Z,15.37
2022-09-10T20:26:27.381Z,15.38
2022-09-10T20:28:56.469Z,15.39
2022-09-10T20:31:26.083Z,15.45
2022-09-10T20:33:55.385Z,15.42
2022-09-10T20:36:23.844Z,15.41
2022-09-10T20:38:52.066Z,15.39
2022-09-10T20:41:23.234Z,15.38
2022-09-10T20:43:52.814Z,15.44
2022-09-10T20:46:23.149Z,15.44
2022-09-10T20:48:52.101Z,15.43
2022-09-10T20:51:21.419Z,15.49
2022-09-10T20:53:49.662Z,15.43
2022-09-10T20:56:22.966Z,15.39
2022-09-10T20:58:50.946Z,15.42
2022-09-10T21:01:20.592Z,15.36
2022-09-10T21:03:50.560Z,15.36
2022-09-10T21:06:20.271Z,15.34
2022-09-10T21:08:49.217Z,15.32
2022-09-10T21:11:19.935Z,15.31
2022-09-10T21:13:51.146Z,15.32
2022-09-10T21:16:20.945Z,15.36
2022-09-10T21:18:54.402Z,15.37
2022-09-10T21:21:27.805Z,15.36
2022-09-10T21:23:57.183Z,15.33
2022-09-10T21:26:27.125Z,15.34
2022-09-10T21:28:58.348Z,15.35
2022-09-10T21:31:27.241Z,15.37
2022-09-10T21:34:01.900Z,15.35
2022-09-10T21:36:32.012Z,15.33
2022-09-10T21:39:01.663Z,15.30
2022-09-10T21:41:31.338Z,15.30
2022-09-10T21:44:01.739Z,15.27
2022-09-10T21:46:30.388Z,15.32
2022-09-10T21:48:58.429Z,15.31
2022-09-10T21:51:26.452Z,15.30
2022-09-10T21:53:56.175Z,15.27
2022-09-10T21:56:26.811Z,15.25
2022-09-10T21:58:56.548Z,15.24
2022-09-10T22:01:28.155Z,15.24
2022-09-10T22:03:57.751Z,15.25
2022-09-10T22:06:27.390Z,15.22
2022-09-10T22:08:58.066Z,15.21
2022-09-10T22:11:30.129Z,15.16
2022-09-10T22:14:00.789Z,15.16
2022-09-10T22:16:31.979Z,15.15
2022-09-10T22:19:02.126Z,15.10
2022-09-10T22:21:30.979Z,15.12
2022-09-10T22:23:59.221Z,15.12
2022-09-10T22:26:29.067Z,15.13
2022-09-10T22:28:59.775Z,15.14
2022-09-10T22:31:31.124Z,15.12
2022-09-10T22:34:00.740Z,15.14
2022-09-10T22:36:31.399Z,15.29
2022-09-10T22:39:01.215Z,15.23
2022-09-10T22:41:34.649Z,15.14
2022-09-10T22:44:03.502Z,15.09
2022-09-10T22:46:33.576Z,15.11
2022-09-10T22:49:01.749Z,15.10
2022-09-10T22:51:34.145Z,15.12
2022-09-10T22:54:02.956Z,15.11
2022-09-10T22:56:30.962Z,15.12
2022-09-10T22:59:00.797Z,15.16
2022-09-10T23:01:30.942Z,15.13
2022-09-10T23:04:01.860Z,15.16
2022-09-10T23:06:31.856Z,15.11
2022-09-10T23:09:04.726Z,15.09
2022-09-10T23:11:34.419Z,15.07
2022-09-10T23:14:05.794Z,15.05
2022-09-10T23:16:36.254Z,15.16
2022-09-10T23:19:07.383Z,15.13
2022-09-10T23:21:36.718Z,15.14
2022-09-10T23:24:07.300Z,15.12
2022-09-10T23:26:35.269Z,15.09
2022-09-10T23:29:04.711Z,15.10
2022-09-10T23:31:34.643Z,15.05
2022-09-10T23:34:05.505Z,15.03
2022-09-10T23:36:35.353Z,15.02
2022-09-10T23:39:06.346Z,15.01
2022-09-10T23:41:34.628Z,15.00
2022-09-10T23:44:03.004Z,15.00
2022-09-10T23:46:30.957Z,14.99
2022-09-10T23:48:59.024Z,15.00
2022-09-10T23:51:28.863Z,15.02
2022-09-10T23:53:57.017Z,14.99
2022-09-10T23:56:26.855Z,15.03
2022-09-10T23:58:56.018Z,15.03
